createdAt,value
2022-11-25T00:01:17.482Z,8.30
2022-11-25T00:03:46.332Z,8.40
2022-11-25T00:06:19.349Z,8.30
2022-11-25T00:08:48.052Z,8.30
2022-11-25T00:11:15.816Z,8.40
2022-11-25T00:13:43.627Z,8.40
2022-11-25T00:16:13.934Z,8.40
2022-11-25T00:18:45.341Z,8.40
2022-11-25T00:21:14.646Z,8.40
2022-11-25T00:23:41.767Z,8.50
2022-11-25T00:26:09.764Z,8.50
2022-11-25T00:28:37.661Z,8.50
2022-11-25T00:31:12.849Z,8.60
2022-11-25T00:33:40.572Z,8.60
2022-11-25T00:36:30.070Z,8.60
2022-11-25T00:39:04.315Z,8.60
2022-11-25T00:41:50.110Z,8.60
2022-11-25T00:44:39.026Z,8.60
2022-11-25T00:47:20.622Z,8.60
2022-11-25T00:49:49.859Z,8.60
2022-11-25T00:52:27.683Z,8.60
2022-11-25T00:54:54.890Z,8.70
2022-11-25T00:57:23.706Z,8.70
2022-11-25T00:59:50.958Z,8.70
2022-11-25T01:02:18.968Z,8.70
2022-11-25T01:04:46.642Z,8.70
2022-11-25T01:07:13.885Z,8.60
2022-11-25T01:09:40.864Z,8.60
2022-11-25T01:12:07.938Z,8.60
2022-11-25T01:14:35.257Z,8.60
2022-11-25T01:17:02.410Z,8.60
2022-11-25T01:19:29.346Z,8.60
2022-11-25T01:21:56.400Z,8.60
2022-11-25T01:24:24.216Z,8.60
2022-11-25T01:26:51.250Z,8.60
2022-11-25T01:29:19.440Z,8.60
2022-11-25T01:31:48.279Z,8.60
2022-11-25T01:34:20.797Z,8.50
2022-11-25T01:36:48.132Z,8.50
2022-11-25T01:39:30.167Z,8.50
2022-11-25T01:41:59.560Z,8.50
2022-11-25T01:44:31.928Z,8.40
2022-11-25T01:47:04.661Z,8.40
2022-11-25T01:49:55.820Z,8.40
2022-11-25T01:52:40.249Z,8.40
2022-11-25T01:55:10.365Z,8.40
2022-11-25T01:57:54.539Z,8.40
2022-11-25T02:00:21.912Z,8.50
2022-11-25T02:02:51.829Z,8.50
2022-11-25T02:05:23.727Z,8.50
2022-11-25T02:07:53.017Z,8.50
2022-11-25T02:10:25.787Z,8.50
2022-11-25T02:12:53.489Z,8.50
2022-11-25T02:15:22.126Z,8.60
2022-11-25T02:17:49.749Z,8.60
2022-11-25T02:20:20.373Z,8.60
2022-11-25T02:23:02.981Z,8.50
2022-11-25T02:25:40.954Z,8.50
2022-11-25T02:28:15.660Z,8.50
2022-11-25T02:30:43.640Z,8.50
2022-11-25T02:33:11.586Z,8.50
2022-11-25T02:35:40.028Z,8.50
2022-11-25T02:38:23.979Z,8.50
2022-11-25T02:41:05.779Z,8.50
2022-11-25T02:43:32.809Z,8.40
2022-11-25T02:46:05.760Z,8.40
2022-11-25T02:51:26.309Z,8.40
2022-11-25T02:53:53.568Z,8.30
2022-11-25T02:56:23.097Z,8.30
2022-11-25T02:58:50.112Z,8.30
2022-11-25T03:01:17.726Z,8.30
2022-11-25T03:03:44.769Z,8.30
2022-11-25T03:06:11.969Z,8.30
2022-11-25T03:08:39.343Z,8.30
2022-11-25T03:11:06.897Z,8.30
2022-11-25T03:13:34.370Z,8.40
2022-11-25T03:16:01.368Z,8.40
2022-11-25T03:18:28.334Z,8.40
2022-11-25T03:20:56.202Z,8.40
2022-11-25T03:23:23.558Z,8.40
2022-11-25T03:25:50.466Z,8.40
2022-11-25T03:28:17.476Z,8.40
2022-11-25T03:30:44.601Z,8.40
2022-11-25T03:33:11.598Z,8.40
2022-11-25T03:35:38.607Z,8.40
2022-11-25T03:38:05.847Z,8.50
2022-11-25T03:40:32.785Z,8.50
2022-11-25T03:42:59.718Z,8.50
2022-11-25T03:45:26.698Z,8.50
2022-11-25T03:47:53.509Z,8.50
2022-11-25T03:50:20.493Z,8.50
2022-11-25T03:52:47.350Z,8.50
2022-11-25T03:55:14.500Z,8.50
2022-11-25T03:57:41.544Z,8.50
2022-11-25T04:00:11.155Z,8.50
2022-11-25T04:02:38.080Z,8.50
2022-11-25T04:05:05.594Z,8.50
2022-11-25T04:07:32.670Z,8.50
2022-11-25T04:09:59.677Z,8.50
2022-11-25T04:12:44.927Z,8.50
2022-11-25T04:15:11.872Z,8.50
2022-11-25T04:17:38.825Z,8.50
2022-11-25T04:20:06.566Z,8.50
2022-11-25T04:22:33.518Z,8.50
2022-11-25T04:25:00.773Z,8.50
2022-11-25T04:27:27.805Z,8.50
2022-11-25T04:29:54.666Z,8.50
2022-11-25T04:32:21.677Z,8.50
2022-11-25T04:34:48.563Z,8.50
2022-11-25T04:37:15.485Z,8.50
2022-11-25T04:39:42.371Z,8.50
2022-11-25T04:42:27.946Z,8.50
2022-11-25T04:45:20.984Z,8.50
2022-11-25T04:47:42.354Z,8.50
2022-11-25T04:50:15.474Z,8.50
2022-11-25T04:52:42.684Z,8.50
2022-11-25T04:55:10.327Z,8.50
2022-11-25T04:57:37.317Z,8.50
2022-11-25T05:00:06.108Z,8.50
2022-11-25T05:02:33.147Z,8.50
2022-11-25T05:05:00.144Z,8.50
2022-11-25T05:07:28.618Z,8.50
2022-11-25T05:09:55.794Z,8.50
2022-11-25T05:12:25.892Z,8.50
2022-11-25T05:14:53.259Z,8.50
2022-11-25T05:17:22.678Z,8.50
2022-11-25T05:19:51.844Z,8.50
2022-11-25T05:22:22.529Z,8.50
2022-11-25T05:24:49.354Z,8.60
2022-11-25T05:27:17.305Z,8.60
2022-11-25T05:29:44.525Z,8.60
2022-11-25T05:32:11.972Z,8.60
2022-11-25T05:34:39.362Z,8.60
2022-11-25T05:37:07.264Z,8.60
2022-11-25T05:39:34.208Z,8.60
2022-11-25T05:42:01.302Z,8.60
2022-11-25T05:44:28.245Z,8.60
2022-11-25T05:46:55.122Z,8.60
2022-11-25T05:49:22.230Z,8.60
2022-11-25T05:51:49.181Z,8.60
2022-11-25T05:54:16.419Z,8.60
2022-11-25T05:56:43.255Z,8.60
2022-11-25T05:59:10.237Z,8.60
2022-11-25T06:01:37.055Z,8.60
2022-11-25T06:04:05.158Z,8.60
2022-11-25T06:06:32.798Z,8.70
2022-11-25T06:09:00.179Z,8.70
2022-11-25T06:11:27.292Z,8.60
2022-11-25T06:13:58.008Z,8.70
2022-11-25T06:16:25.804Z,8.70
2022-11-25T06:19:05.523Z,8.70
2022-11-25T06:21:32.853Z,8.70
2022-11-25T06:23:59.833Z,8.70
2022-11-25T06:26:26.815Z,8.70
2022-11-25T06:28:55.452Z,8.70
2022-11-25T06:31:25.725Z,8.70
2022-11-25T06:33:53.858Z,8.70
2022-11-25T06:36:22.224Z,8.70
2022-11-25T06:38:51.592Z,8.70
2022-11-25T06:41:19.798Z,8.70
2022-11-25T06:43:47.016Z,8.70
2022-11-25T06:46:19.810Z,8.70
2022-11-25T06:48:51.197Z,8.80
2022-11-25T06:51:18.125Z,8.80
2022-11-25T06:53:45.686Z,8.80
2022-11-25T06:56:15.828Z,8.80
2022-11-25T06:58:43.776Z,8.80
2022-11-25T07:01:16.732Z,8.80
2022-11-25T07:03:44.946Z,8.80
2022-11-25T07:06:13.483Z,8.80
2022-11-25T07:08:40.792Z,8.80
2022-11-25T07:11:20.680Z,8.80
2022-11-25T07:13:48.168Z,8.80
2022-11-25T07:16:15.547Z,8.80
2022-11-25T07:18:42.810Z,8.90
2022-11-25T07:21:12.876Z,8.80
2022-11-25T07:23:41.789Z,8.80
2022-11-25T07:26:21.579Z,8.80
2022-11-25T07:28:50.405Z,8.80
2022-11-25T07:31:31.225Z,8.90
2022-11-25T07:34:05.367Z,8.90
2022-11-25T07:36:34.445Z,8.80
2022-11-25T07:39:04.527Z,8.90
2022-11-25T07:41:31.910Z,8.90
2022-11-25T07:44:02.451Z,8.90
2022-11-25T07:46:39.226Z,8.90
2022-11-25T07:49:10.228Z,8.90
2022-11-25T07:51:43.124Z,8.90
2022-11-25T07:54:12.477Z,8.90
2022-11-25T07:56:42.612Z,8.90
2022-11-25T07:59:14.883Z,8.90
2022-11-25T08:01:42.780Z,8.90
2022-11-25T08:04:15.091Z,8.90
2022-11-25T08:06:48.063Z,9.00
2022-11-25T08:09:19.377Z,9.00
2022-11-25T08:11:47.674Z,9.00
2022-11-25T08:14:15.241Z,9.00
2022-11-25T08:16:42.611Z,9.10
2022-11-25T08:19:13.944Z,9.10
2022-11-25T08:21:41.923Z,9.10
2022-11-25T08:24:17.017Z,9.10
2022-11-25T08:26:44.166Z,9.10
2022-11-25T08:29:13.973Z,9.10
2022-11-25T08:31:41.307Z,9.20
2022-11-25T08:34:08.280Z,9.20
2022-11-25T08:36:36.607Z,9.40
2022-11-25T08:39:28.800Z,9.60
2022-11-25T08:41:54.092Z,9.90
2022-11-25T08:44:21.308Z,10.10
2022-11-25T08:46:48.355Z,10.10
2022-11-25T08:49:17.356Z,10.20
2022-11-25T08:51:44.372Z,10.20
2022-11-25T08:54:11.545Z,10.40
2022-11-25T08:56:38.661Z,10.70
2022-11-25T08:59:05.882Z,10.80
2022-11-25T09:01:33.342Z,11.10
2022-11-25T09:04:01.040Z,11.20
2022-11-25T09:06:29.424Z,11.20
2022-11-25T09:09:01.638Z,11.10
2022-11-25T09:11:28.962Z,11.30
2022-11-25T09:13:56.129Z,11.60
2022-11-25T09:16:24.319Z,11.80
2022-11-25T09:18:55.862Z,12.00
2022-11-25T09:21:25.111Z,12.20
2022-11-25T09:23:54.098Z,12.40
2022-11-25T09:26:32.215Z,12.60
2022-11-25T09:28:59.326Z,12.80
2022-11-25T09:31:26.255Z,12.90
2022-11-25T09:33:53.633Z,12.90
2022-11-25T09:36:21.747Z,12.70
2022-11-25T09:38:48.687Z,12.50
2022-11-25T09:42:05.400Z,12.70
2022-11-25T09:45:10.668Z,13.10
2022-11-25T09:47:57.886Z,13.60
2022-11-25T09:50:31.087Z,14.20
2022-11-25T09:53:21.453Z,14.40
2022-11-25T09:55:50.450Z,14.50
2022-11-25T09:58:36.376Z,14.60
2022-11-25T10:01:12.468Z,14.80
2022-11-25T10:03:56.617Z,15.00
2022-11-25T10:06:28.700Z,15.30
2022-11-25T10:09:01.925Z,15.20
2022-11-25T10:11:50.098Z,15.30
2022-11-25T10:14:42.917Z,15.40
2022-11-25T10:17:09.883Z,15.80
2022-11-25T10:20:05.359Z,15.90
2022-11-25T10:22:39.041Z,16.20
2022-11-25T10:25:15.347Z,16.30
2022-11-25T10:27:44.853Z,16.30
2022-11-25T10:30:38.055Z,16.20
2022-11-25T10:33:29.018Z,16.30
2022-11-25T10:36:01.595Z,16.30
2022-11-25T10:38:43.226Z,16.60
2022-11-25T10:41:20.983Z,16.60
2022-11-25T10:43:48.442Z,16.40
2022-11-25T10:46:25.198Z,16.10
2022-11-25T10:49:39.008Z,15.70
2022-11-25T10:52:13.493Z,15.50
2022-11-25T10:54:41.226Z,15.10
2022-11-25T10:57:21.237Z,14.90
2022-11-25T10:59:59.840Z,14.50
2022-11-25T11:02:35.789Z,14.10
2022-11-25T11:05:09.013Z,13.70
2022-11-25T11:07:42.613Z,13.50
2022-11-25T11:10:44.966Z,13.60
2022-11-25T11:13:18.066Z,13.60
2022-11-25T11:15:47.729Z,13.50
2022-11-25T11:18:24.120Z,13.70
2022-11-25T11:20:59.162Z,14.50
2022-11-25T11:23:28.043Z,15.00
2022-11-25T11:25:56.849Z,15.40
2022-11-25T11:28:34.843Z,15.80
2022-11-25T11:31:43.475Z,16.20
2022-11-25T11:34:45.444Z,16.20
2022-11-25T11:37:18.110Z,16.40
2022-11-25T11:40:17.448Z,16.60
2022-11-25T11:42:55.258Z,16.80
2022-11-25T11:45:24.989Z,16.80
2022-11-25T11:47:51.857Z,16.60
2022-11-25T11:50:50.046Z,16.60
2022-11-25T11:53:26.710Z,16.70
2022-11-25T11:56:35.664Z,16.50
2022-11-25T11:59:29.951Z,15.80
2022-11-25T12:02:14.469Z,15.20
2022-11-25T12:05:07.076Z,15.10
2022-11-25T12:07:36.811Z,15.80
2022-11-25T12:10:15.665Z,16.80
2022-11-25T12:12:50.099Z,17.10
2022-11-25T12:15:36.089Z,16.80
2022-11-25T12:18:12.628Z,16.10
2022-11-25T12:20:47.827Z,16.00
2022-11-25T12:23:50.778Z,16.90
2022-11-25T12:26:39.037Z,17.80
2022-11-25T12:29:14.261Z,18.30
2022-11-25T12:32:27.873Z,18.80
2022-11-25T12:35:22.403Z,19.30
2022-11-25T12:38:04.669Z,19.50
2022-11-25T12:40:36.047Z,19.40
2022-11-25T12:43:35.601Z,18.70
2022-11-25T12:46:07.659Z,17.80
2022-11-25T12:48:40.142Z,17.60
2022-11-25T12:51:23.085Z,18.10
2022-11-25T12:54:19.413Z,18.70
2022-11-25T12:57:07.572Z,19.10
2022-11-25T13:00:40.032Z,19.30
2022-11-25T13:03:13.940Z,19.60
2022-11-25T13:05:41.385Z,19.90
2022-11-25T13:08:37.602Z,20.10
2022-11-25T13:11:19.787Z,20.40
2022-11-25T13:14:10.495Z,20.30
2022-11-25T13:16:38.256Z,20.10
2022-11-25T13:19:12.267Z,19.90
2022-11-25T13:21:57.568Z,19.20
2022-11-25T13:24:43.645Z,18.10
2022-11-25T13:27:42.490Z,17.20
2022-11-25T13:30:32.558Z,16.60
2022-11-25T13:33:11.882Z,16.90
2022-11-25T13:35:44.569Z,16.90
2022-11-25T13:38:29.828Z,16.70
2022-11-25T13:41:21.050Z,15.90
2022-11-25T13:43:53.955Z,15.40
2022-11-25T13:46:36.049Z,14.90
2022-11-25T13:49:04.933Z,14.40
2022-11-25T13:51:32.293Z,14.10
2022-11-25T13:54:06.401Z,13.90
2022-11-25T13:56:37.631Z,14.00
2022-11-25T13:59:10.824Z,13.90
2022-11-25T14:01:39.704Z,13.70
2022-11-25T14:04:12.830Z,13.50
2022-11-25T14:06:51.086Z,13.40
2022-11-25T14:09:46.735Z,13.50
2022-11-25T14:12:40.744Z,13.50
2022-11-25T14:15:22.612Z,13.40
2022-11-25T14:18:37.099Z,13.30
2022-11-25T14:21:28.800Z,13.30
2022-11-25T14:23:58.383Z,13.20
2022-11-25T14:26:48.657Z,13.20
2022-11-25T14:29:22.216Z,13.20
2022-11-25T14:31:57.202Z,13.20
2022-11-25T14:34:29.703Z,13.10
2022-11-25T14:37:22.670Z,13.10
2022-11-25T14:39:52.759Z,13.00
2022-11-25T14:42:23.405Z,12.90
2022-11-25T14:44:52.348Z,12.80
2022-11-25T14:47:23.927Z,12.70
2022-11-25T14:50:18.903Z,12.50
2022-11-25T14:52:46.007Z,12.40
2022-11-25T14:55:13.894Z,12.30
2022-11-25T14:57:44.975Z,12.20
2022-11-25T15:00:16.200Z,12.10
2022-11-25T15:02:56.368Z,12.10
2022-11-25T15:05:33.279Z,12.00
2022-11-25T15:08:20.417Z,11.90
2022-11-25T15:10:50.456Z,11.90
2022-11-25T15:13:40.311Z,11.80
2022-11-25T15:16:13.567Z,11.70
2022-11-25T15:18:47.490Z,11.60
2022-11-25T15:21:16.186Z,11.50
2022-11-25T15:23:43.531Z,11.50
2022-11-25T15:26:22.821Z,11.40
2022-11-25T15:29:04.367Z,11.40
2022-11-25T15:31:34.890Z,11.30
2022-11-25T15:34:13.247Z,11.20
2022-11-25T15:36:40.654Z,11.20
2022-11-25T15:39:19.763Z,11.10
2022-11-25T15:42:02.802Z,11.00
2022-11-25T15:44:40.817Z,11.00
2022-11-25T15:47:19.251Z,10.90
2022-11-25T15:50:05.706Z,10.80
2022-11-25T15:52:36.248Z,10.80
2022-11-25T15:55:18.322Z,10.70
2022-11-25T15:57:50.792Z,10.70
2022-11-25T16:00:20.382Z,10.70
2022-11-25T16:02:47.524Z,10.60
2022-11-25T16:05:15.787Z,10.50
2022-11-25T16:07:52.061Z,10.40
2022-11-25T16:10:20.974Z,10.40
2022-11-25T16:13:20.971Z,10.40
2022-11-25T16:15:57.277Z,10.30
2022-11-25T16:18:40.342Z,10.20
2022-11-25T16:21:15.883Z,10.20
2022-11-25T16:23:49.340Z,10.10
2022-11-25T16:26:18.527Z,10.10
2022-11-25T16:28:57.404Z,10.10
2022-11-25T16:31:25.364Z,10.00
2022-11-25T16:34:17.209Z,10.00
2022-11-25T16:36:44.896Z,9.90
2022-11-25T16:39:12.172Z,9.90
2022-11-25T16:41:40.536Z,9.80
2022-11-25T16:44:21.337Z,9.80
2022-11-25T16:46:48.384Z,9.70
2022-11-25T16:49:16.855Z,9.70
2022-11-25T16:51:44.212Z,9.70
2022-11-25T16:54:12.672Z,9.70
2022-11-25T16:56:42.225Z,9.60
2022-11-25T16:59:37.153Z,9.60
2022-11-25T17:02:10.382Z,9.60
2022-11-25T17:04:37.503Z,9.50
2022-11-25T17:07:31.770Z,9.50
2022-11-25T17:09:58.013Z,9.50
2022-11-25T17:12:30.531Z,9.40
2022-11-25T17:14:59.984Z,9.40
2022-11-25T17:17:28.790Z,9.40
2022-11-25T17:19:55.942Z,9.30
2022-11-25T17:22:25.402Z,9.40
2022-11-25T17:24:52.637Z,9.30
2022-11-25T17:27:29.768Z,9.30
2022-11-25T17:30:00.168Z,9.40
2022-11-25T17:32:28.023Z,9.40
2022-11-25T17:34:55.053Z,9.40
2022-11-25T17:37:24.130Z,9.30
2022-11-25T17:39:55.747Z,9.30
2022-11-25T17:42:32.382Z,9.30
2022-11-25T17:45:00.736Z,9.20
2022-11-25T17:47:27.901Z,9.20
2022-11-25T17:49:55.345Z,9.10
2022-11-25T17:52:22.416Z,9.10
2022-11-25T17:54:49.444Z,9.10
2022-11-25T17:57:21.089Z,9.10
2022-11-25T17:59:48.443Z,9.10
2022-11-25T18:02:21.337Z,9.10
2022-11-25T18:04:49.078Z,9.00
2022-11-25T18:07:16.398Z,8.90
2022-11-25T18:09:44.571Z,8.90
2022-11-25T18:12:23.563Z,8.90
2022-11-25T18:14:50.629Z,8.90
2022-11-25T18:17:19.275Z,8.90
2022-11-25T18:19:52.903Z,8.90
2022-11-25T18:22:23.629Z,8.90
2022-11-25T18:24:50.702Z,8.90
2022-11-25T18:27:27.677Z,8.90
2022-11-25T18:29:56.379Z,9.00
2022-11-25T18:32:24.831Z,9.00
2022-11-25T18:34:52.376Z,9.00
2022-11-25T18:37:19.420Z,9.00
2022-11-25T18:39:46.681Z,8.90
2022-11-25T18:42:27.489Z,8.90
2022-11-25T18:44:55.865Z,8.80
2022-11-25T18:47:23.279Z,8.80
2022-11-25T18:49:55.519Z,8.70
2022-11-25T18:52:24.367Z,8.70
2022-11-25T18:54:51.419Z,8.70
2022-11-25T18:57:18.430Z,8.70
2022-11-25T18:59:48.070Z,8.70
2022-11-25T19:02:23.216Z,8.60
2022-11-25T19:04:50.243Z,8.60
2022-11-25T19:07:17.249Z,8.50
2022-11-25T19:09:44.424Z,8.50
2022-11-25T19:12:17.101Z,8.50
2022-11-25T19:14:44.487Z,8.50
2022-11-25T19:17:20.553Z,8.50
2022-11-25T19:19:47.739Z,8.40
2022-11-25T19:22:16.438Z,8.40
2022-11-25T19:24:43.638Z,8.40
2022-11-25T19:27:21.086Z,8.40
2022-11-25T19:29:48.297Z,8.40
2022-11-25T19:32:29.700Z,8.30
2022-11-25T19:35:01.140Z,8.30
2022-11-25T19:37:30.229Z,8.30
2022-11-25T19:39:57.515Z,8.30
2022-11-25T19:42:25.698Z,8.30
2022-11-25T19:44:55.435Z,8.30
2022-11-25T19:47:24.924Z,8.20
2022-11-25T19:49:54.818Z,8.20
2022-11-25T19:52:27.976Z,8.20
2022-11-25T19:54:54.973Z,8.20
2022-11-25T19:57:23.349Z,8.20
2022-11-25T19:59:50.995Z,8.20
2022-11-25T20:02:21.345Z,8.20
2022-11-25T20:04:51.714Z,8.20
2022-11-25T20:07:20.532Z,8.20
2022-11-25T20:09:48.362Z,8.10
2022-11-25T20:12:28.452Z,8.00
2022-11-25T20:14:56.004Z,8.00
2022-11-25T20:17:29.737Z,8.00
2022-11-25T20:19:59.751Z,8.00
2022-11-25T20:22:31.119Z,8.00
2022-11-25T20:25:01.068Z,8.00
2022-11-25T20:27:29.400Z,8.00
2022-11-25T20:29:56.420Z,8.00
2022-11-25T20:32:28.951Z,7.90
2022-11-25T20:34:57.475Z,7.90
2022-11-25T20:37:26.295Z,7.90
2022-11-25T20:39:55.059Z,7.90
2022-11-25T20:42:23.492Z,7.90
2022-11-25T20:44:54.636Z,7.90
2022-11-25T20:47:26.435Z,7.80
2022-11-25T20:49:53.931Z,7.80
2022-11-25T20:52:28.823Z,7.80
2022-11-25T20:54:57.112Z,7.80
2022-11-25T20:57:24.850Z,7.80
2022-11-25T20:59:51.820Z,7.80
2022-11-25T21:02:21.614Z,7.80
2022-11-25T21:04:48.842Z,7.80
2022-11-25T21:07:17.983Z,7.80
2022-11-25T21:09:45.163Z,7.80
2022-11-25T21:12:19.095Z,7.80
2022-11-25T21:14:50.129Z,7.80
2022-11-25T21:17:17.057Z,7.80
2022-11-25T21:19:45.288Z,7.70
2022-11-25T21:22:14.828Z,7.70
2022-11-25T21:24:42.644Z,7.70
2022-11-25T21:27:15.366Z,7.70
2022-11-25T21:29:45.722Z,7.70
2022-11-25T21:32:26.430Z,7.70
2022-11-25T21:34:53.727Z,7.70
2022-11-25T21:37:29.999Z,7.70
2022-11-25T21:39:58.534Z,7.70
2022-11-25T21:42:26.854Z,7.70
2022-11-25T21:44:54.337Z,7.60
2022-11-25T21:47:24.906Z,7.60
2022-11-25T21:49:52.348Z,7.60
2022-11-25T21:52:19.555Z,7.60
2022-11-25T21:54:47.566Z,7.60
2022-11-25T21:57:24.241Z,7.50
2022-11-25T21:59:51.127Z,7.50
2022-11-25T22:02:21.374Z,7.50
2022-11-25T22:04:49.148Z,7.50
2022-11-25T22:07:16.221Z,7.50
2022-11-25T22:09:43.318Z,7.40
2022-11-25T22:12:29.834Z,7.40
2022-11-25T22:14:59.417Z,7.40
2022-11-25T22:17:26.934Z,7.40
2022-11-25T22:19:54.209Z,7.30
2022-11-25T22:22:21.250Z,7.30
2022-11-25T22:24:48.294Z,7.30
2022-11-25T22:27:28.390Z,7.30
2022-11-25T22:29:55.853Z,7.30
2022-11-25T22:32:22.901Z,7.20
2022-11-25T22:34:49.809Z,7.20
2022-11-25T22:37:19.824Z,7.20
2022-11-25T22:39:47.512Z,7.20
2022-11-25T22:42:32.997Z,7.20
2022-11-25T22:45:02.544Z,7.10
2022-11-25T22:47:43.029Z,7.10
2022-11-25T22:50:26.477Z,7.10
2022-11-25T22:52:54.590Z,7.00
2022-11-25T22:55:24.927Z,7.10
2022-11-25T22:57:54.995Z,7.00
2022-11-25T23:00:24.927Z,7.00
2022-11-25T23:02:54.303Z,7.00
2022-11-25T23:05:34.060Z,7.00
2022-11-25T23:08:19.280Z,7.00
2022-11-25T23:10:46.881Z,7.00
2022-11-25T23:13:15.803Z,7.00
2022-11-25T23:15:47.150Z,7.00
2022-11-25T23:18:18.577Z,7.00
2022-11-25T23:20:45.822Z,6.90
2022-11-25T23:23:16.377Z,6.90
2022-11-25T23:25:43.305Z,6.90
2022-11-25T23:28:10.760Z,6.80
2022-11-25T23:30:38.725Z,6.90
2022-11-25T23:33:16.903Z,6.90
2022-11-25T23:35:44.011Z,6.90
2022-11-25T23:38:16.510Z,6.80
2022-11-25T23:40:43.417Z,6.80
2022-11-25T23:43:14.659Z,6.80
2022-11-25T23:45:59.594Z,6.70
2022-11-25T23:48:29.899Z,6.70
2022-11-25T23:50:59.001Z,6.70
2022-11-25T23:53:30.205Z,6.60
2022-11-25T23:55:57.182Z,6.60
2022-11-25T23:58:24.542Z,6.60
